sensor_id;sensor_type;location;lat;lon;timestamp;P1;durP1;ratioP1;P2;durP2;ratioP2
13967;SDS011;39536;52.198;9.920;2024-03-08T00:01:53;0.20;;;0.20;;
13967;SDS011;39536;52.198;9.920;2024-03-08T00:04:20;0.10;;;0.10;;
13967;SDS011;39536;52.198;9.920;2024-03-08T00:06:46;0.30;;;0.30;;
13967;SDS011;39536;52.198;9.920;2024-03-08T00:09:14;2.03;;;1.73;;
13967;SDS011;39536;52.198;9.920;2024-03-08T00:11:41;0.10;;;0.10;;
13967;SDS011;39536;52.198;9.920;2024-03-08T00:14:07;0.00;;;0.00;;
13967;SDS011;39536;52.198;9.920;2024-03-08T00:16:34;0.20;;;0.20;;
13967;SDS011;39536;52.198;9.920;2024-03-08T00:19:00;0.00;;;0.00;;
13967;SDS011;39536;52.198;9.920;2024-03-08T00:21:27;0.87;;;0.57;;
13967;SDS011;39536;52.198;9.920;2024-03-08T00:23:54;12.27;;;1.73;;
13967;SDS011;39536;52.198;9.920;2024-03-08T00:26:22;2.20;;;2.07;;
13967;SDS011;39536;52.198;9.920;2024-03-08T00:28:48;1.30;;;1.27;;
13967;SDS011;39536;52.198;9.920;2024-03-08T00:31:15;1.97;;;1.87;;
13967;SDS011;39536;52.198;9.920;2024-03-08T00:33:42;3.10;;;1.00;;
13967;SDS011;39536;52.198;9.920;2024-03-08T00:36:08;0.10;;;0.10;;
13967;SDS011;39536;52.198;9.920;2024-03-08T00:38:35;0.67;;;0.67;;
13967;SDS011;39536;52.198;9.920;2024-03-08T00:41:01;0.00;;;0.00;;
13967;SDS011;39536;52.198;9.920;2024-03-08T00:43:29;0.00;;;0.00;;
13967;SDS011;39536;52.198;9.920;2024-03-08T00:45:56;1.60;;;0.30;;
13967;SDS011;39536;52.198;9.920;2024-03-08T00:48:23;0.00;;;0.00;;
13967;SDS011;39536;52.198;9.920;2024-03-08T00:50:49;2.53;;;0.87;;
13967;SDS011;39536;52.198;9.920;2024-03-08T00:53:16;0.00;;;0.00;;
13967;SDS011;39536;52.198;9.920;2024-03-08T00:55:43;0.63;;;0.63;;
13967;SDS011;39536;52.198;9.920;2024-03-08T00:58:11;0.00;;;0.00;;
13967;SDS011;39536;52.198;9.920;2024-03-08T01:00:39;0.10;;;0.10;;
13967;SDS011;39536;52.198;9.920;2024-03-08T01:03:05;0.10;;;0.10;;
13967;SDS011;39536;52.198;9.920;2024-03-08T01:05:32;1.13;;;1.13;;
13967;SDS011;39536;52.198;9.920;2024-03-08T01:08:00;0.37;;;0.37;;
13967;SDS011;39536;52.198;9.920;2024-03-08T01:10:28;0.00;;;0.00;;
13967;SDS011;39536;52.198;9.920;2024-03-08T01:12:54;0.40;;;0.40;;
13967;SDS011;39536;52.198;9.920;2024-03-08T01:15:22;1.83;;;0.67;;
13967;SDS011;39536;52.198;9.920;2024-03-08T01:17:50;0.50;;;0.50;;
13967;SDS011;39536;52.198;9.920;2024-03-08T01:20:16;0.10;;;0.10;;
13967;SDS011;39536;52.198;9.920;2024-03-08T01:22:43;0.00;;;0.00;;
13967;SDS011;39536;52.198;9.920;2024-03-08T01:25:09;1.27;;;1.23;;
13967;SDS011;39536;52.198;9.920;2024-03-08T01:27:36;0.00;;;0.00;;
13967;SDS011;39536;52.198;9.920;2024-03-08T01:30:03;0.00;;;0.00;;
13967;SDS011;39536;52.198;9.920;2024-03-08T01:32:30;0.00;;;0.00;;
13967;SDS011;39536;52.198;9.920;2024-03-08T01:34:58;0.00;;;0.00;;
13967;SDS011;39536;52.198;9.920;2024-03-08T01:37:24;0.10;;;0.10;;
13967;SDS011;39536;52.198;9.920;2024-03-08T01:39:51;0.20;;;0.20;;
13967;SDS011;39536;52.198;9.920;2024-03-08T01:42:18;0.00;;;0.00;;
13967;SDS011;39536;52.198;9.920;2024-03-08T01:44:44;0.73;;;0.73;;
13967;SDS011;39536;52.198;9.920;2024-03-08T01:47:11;0.40;;;0.40;;
13967;SDS011;39536;52.198;9.920;2024-03-08T01:49:38;0.27;;;0.27;;
13967;SDS011;39536;52.198;9.920;2024-03-08T01:52:06;0.67;;;0.67;;
13967;SDS011;39536;52.198;9.920;2024-03-08T01:54:33;1.03;;;1.03;;
13967;SDS011;39536;52.198;9.920;2024-03-08T01:57:01;0.00;;;0.00;;
13967;SDS011;39536;52.198;9.920;2024-03-08T01:59:28;0.77;;;0.77;;
13967;SDS011;39536;52.198;9.920;2024-03-08T02:01:55;0.37;;;0.37;;
13967;SDS011;39536;52.198;9.920;2024-03-08T02:04:23;3.03;;;1.40;;
13967;SDS011;39536;52.198;9.920;2024-03-08T02:06:50;3.57;;;3.47;;
13967;SDS011;39536;52.198;9.920;2024-03-08T02:09:19;0.00;;;0.00;;
13967;SDS011;39536;52.198;9.920;2024-03-08T02:11:45;0.00;;;0.00;;
13967;SDS011;39536;52.198;9.920;2024-03-08T02:14:12;0.00;;;0.00;;
13967;SDS011;39536;52.198;9.920;2024-03-08T02:16:39;0.37;;;0.37;;
13967;SDS011;39536;52.198;9.920;2024-03-08T02:19:05;3.83;;;1.30;;
13967;SDS011;39536;52.198;9.920;2024-03-08T02:21:36;0.00;;;0.00;;
13967;SDS011;39536;52.198;9.920;2024-03-08T02:24:03;0.00;;;0.00;;
13967;SDS011;39536;52.198;9.920;2024-03-08T02:26:30;0.00;;;0.00;;
13967;SDS011;39536;52.198;9.920;2024-03-08T02:28:57;0.10;;;0.10;;
13967;SDS011;39536;52.198;9.920;2024-03-08T02:31:23;0.53;;;0.53;;
13967;SDS011;39536;52.198;9.920;2024-03-08T02:33:50;0.20;;;0.20;;
13967;SDS011;39536;52.198;9.920;2024-03-08T02:36:16;0.20;;;0.20;;
13967;SDS011;39536;52.198;9.920;2024-03-08T02:41:33;0.67;;;0.67;;
13967;SDS011;39536;52.198;9.920;2024-03-08T02:43:59;0.27;;;0.27;;
13967;SDS011;39536;52.198;9.920;2024-03-08T02:46:26;0.00;;;0.00;;
13967;SDS011;39536;52.198;9.920;2024-03-08T02:48:52;0.33;;;0.33;;
13967;SDS011;39536;52.198;9.920;2024-03-08T02:51:19;0.20;;;0.20;;
13967;SDS011;39536;52.198;9.920;2024-03-08T02:53:45;0.00;;;0.00;;
13967;SDS011;39536;52.198;9.920;2024-03-08T02:56:15;0.00;;;0.00;;
13967;SDS011;39536;52.198;9.920;2024-03-08T02:58:42;0.00;;;0.00;;
13967;SDS011;39536;52.198;9.920;2024-03-08T03:01:13;0.10;;;0.10;;
13967;SDS011;39536;52.198;9.920;2024-03-08T03:03:40;2.50;;;2.40;;
13967;SDS011;39536;52.198;9.920;2024-03-08T03:06:07;0.57;;;0.57;;
13967;SDS011;39536;52.198;9.920;2024-03-08T03:08:33;1.97;;;1.50;;
13967;SDS011;39536;52.198;9.920;2024-03-08T03:11:00;1.90;;;1.80;;
13967;SDS011;39536;52.198;9.920;2024-03-08T03:13:28;0.00;;;0.00;;
13967;SDS011;39536;52.198;9.920;2024-03-08T03:15:54;0.20;;;0.20;;
13967;SDS011;39536;52.198;9.920;2024-03-08T03:18:22;0.00;;;0.00;;
13967;SDS011;39536;52.198;9.920;2024-03-08T03:20:51;4.63;;;3.60;;
13967;SDS011;39536;52.198;9.920;2024-03-08T03:23:17;0.00;;;0.00;;
13967;SDS011;39536;52.198;9.920;2024-03-08T03:25:45;0.00;;;0.00;;
13967;SDS011;39536;52.198;9.920;2024-03-08T03:28:12;0.00;;;0.00;;
13967;SDS011;39536;52.198;9.920;2024-03-08T03:30:41;0.00;;;0.00;;
13967;SDS011;39536;52.198;9.920;2024-03-08T03:33:07;0.00;;;0.00;;
13967;SDS011;39536;52.198;9.920;2024-03-08T03:35:34;8.73;;;8.30;;
13967;SDS011;39536;52.198;9.920;2024-03-08T03:38:02;0.83;;;0.83;;
13967;SDS011;39536;52.198;9.920;2024-03-08T03:40:31;0.20;;;0.20;;
13967;SDS011;39536;52.198;9.920;2024-03-08T03:42:58;0.00;;;0.00;;
13967;SDS011;39536;52.198;9.920;2024-03-08T03:45:25;0.73;;;0.73;;
13967;SDS011;39536;52.198;9.920;2024-03-08T03:47:53;0.17;;;0.17;;
13967;SDS011;39536;52.198;9.920;2024-03-08T03:50:19;0.00;;;0.00;;
13967;SDS011;39536;52.198;9.920;2024-03-08T03:52:47;0.73;;;0.63;;
13967;SDS011;39536;52.198;9.920;2024-03-08T03:55:14;0.00;;;0.00;;
13967;SDS011;39536;52.198;9.920;2024-03-08T03:57:40;0.40;;;0.40;;
13967;SDS011;39536;52.198;9.920;2024-03-08T04:00:07;0.30;;;0.30;;
13967;SDS011;39536;52.198;9.920;2024-03-08T04:02:36;0.77;;;0.73;;
13967;SDS011;39536;52.198;9.920;2024-03-08T04:05:05;0.83;;;0.83;;
13967;SDS011;39536;52.198;9.920;2024-03-08T04:07:33;2.33;;;1.90;;
13967;SDS011;39536;52.198;9.920;2024-03-08T04:09:59;0.00;;;0.00;;
13967;SDS011;39536;52.198;9.920;2024-03-08T04:12:26;0.40;;;0.40;;
13967;SDS011;39536;52.198;9.920;2024-03-08T04:14:54;0.27;;;0.27;;
13967;SDS011;39536;52.198;9.920;2024-03-08T04:17:20;0.00;;;0.00;;
13967;SDS011;39536;52.198;9.920;2024-03-08T04:19:47;0.83;;;0.83;;
13967;SDS011;39536;52.198;9.920;2024-03-08T04:22:15;0.30;;;0.30;;
13967;SDS011;39536;52.198;9.920;2024-03-08T04:24:42;2.13;;;1.53;;
13967;SDS011;39536;52.198;9.920;2024-03-08T04:27:09;0.20;;;0.20;;
13967;SDS011;39536;52.198;9.920;2024-03-08T04:29:36;0.00;;;0.00;;
13967;SDS011;39536;52.198;9.920;2024-03-08T04:32:03;1.23;;;1.23;;
13967;SDS011;39536;52.198;9.920;2024-03-08T04:34:30;0.00;;;0.00;;
13967;SDS011;39536;52.198;9.920;2024-03-08T04:36:56;2.67;;;1.90;;
13967;SDS011;39536;52.198;9.920;2024-03-08T04:39:24;0.00;;;0.00;;
13967;SDS011;39536;52.198;9.920;2024-03-08T04:41:53;0.00;;;0.00;;
13967;SDS011;39536;52.198;9.920;2024-03-08T04:44:21;2.17;;;0.73;;
13967;SDS011;39536;52.198;9.920;2024-03-08T04:46:49;2.40;;;2.20;;
13967;SDS011;39536;52.198;9.920;2024-03-08T04:49:16;1.10;;;1.10;;
13967;SDS011;39536;52.198;9.920;2024-03-08T04:51:42;1.17;;;1.17;;
13967;SDS011;39536;52.198;9.920;2024-03-08T04:54:09;0.03;;;0.03;;
13967;SDS011;39536;52.198;9.920;2024-03-08T04:56:37;0.00;;;0.00;;
13967;SDS011;39536;52.198;9.920;2024-03-08T04:59:05;1.33;;;0.20;;
13967;SDS011;39536;52.198;9.920;2024-03-08T05:01:33;0.33;;;0.33;;
13967;SDS011;39536;52.198;9.920;2024-03-08T05:04:01;0.00;;;0.00;;
13967;SDS011;39536;52.198;9.920;2024-03-08T05:06:28;0.57;;;0.57;;
13967;SDS011;39536;52.198;9.920;2024-03-08T05:08:55;0.87;;;0.67;;
13967;SDS011;39536;52.198;9.920;2024-03-08T05:11:22;0.00;;;0.00;;
13967;SDS011;39536;52.198;9.920;2024-03-08T05:13:49;1.10;;;1.10;;
13967;SDS011;39536;52.198;9.920;2024-03-08T05:16:16;0.67;;;0.67;;
13967;SDS011;39536;52.198;9.920;2024-03-08T05:18:42;1.03;;;1.03;;
13967;SDS011;39536;52.198;9.920;2024-03-08T05:21:11;0.80;;;0.80;;
13967;SDS011;39536;52.198;9.920;2024-03-08T05:23:38;0.47;;;0.47;;
13967;SDS011;39536;52.198;9.920;2024-03-08T05:26:05;0.77;;;0.77;;
13967;SDS011;39536;52.198;9.920;2024-03-08T05:28:31;2.90;;;2.70;;
13967;SDS011;39536;52.198;9.920;2024-03-08T05:30:59;1.60;;;1.50;;
13967;SDS011;39536;52.198;9.920;2024-03-08T05:33:26;2.87;;;2.57;;
13967;SDS011;39536;52.198;9.920;2024-03-08T05:35:52;0.70;;;0.70;;
13967;SDS011;39536;52.198;9.920;2024-03-08T05:38:19;2.10;;;1.80;;
13967;SDS011;39536;52.198;9.920;2024-03-08T05:40:46;1.27;;;1.27;;
13967;SDS011;39536;52.198;9.920;2024-03-08T05:43:12;1.17;;;0.93;;
13967;SDS011;39536;52.198;9.920;2024-03-08T05:45:42;1.07;;;1.07;;
13967;SDS011;39536;52.198;9.920;2024-03-08T05:48:10;0.00;;;0.00;;
13967;SDS011;39536;52.198;9.920;2024-03-08T05:50:37;0.67;;;0.67;;
13967;SDS011;39536;52.198;9.920;2024-03-08T05:53:04;2.87;;;2.67;;
13967;SDS011;39536;52.198;9.920;2024-03-08T05:55:31;0.20;;;0.20;;
13967;SDS011;39536;52.198;9.920;2024-03-08T05:58:00;0.37;;;0.37;;
13967;SDS011;39536;52.198;9.920;2024-03-08T06:00:27;2.53;;;2.27;;
13967;SDS011;39536;52.198;9.920;2024-03-08T06:02:53;0.73;;;0.33;;
13967;SDS011;39536;52.198;9.920;2024-03-08T06:05:22;1.67;;;1.67;;
13967;SDS011;39536;52.198;9.920;2024-03-08T06:07:49;0.10;;;0.10;;
13967;SDS011;39536;52.198;9.920;2024-03-08T06:10:18;0.50;;;0.50;;
13967;SDS011;39536;52.198;9.920;2024-03-08T06:12:45;2.53;;;2.10;;
13967;SDS011;39536;52.198;9.920;2024-03-08T06:15:12;8.13;;;3.50;;
13967;SDS011;39536;52.198;9.920;2024-03-08T06:17:40;5.10;;;2.60;;
13967;SDS011;39536;52.198;9.920;2024-03-08T06:20:06;1.87;;;0.63;;
13967;SDS011;39536;52.198;9.920;2024-03-08T06:22:39;1.70;;;1.60;;
13967;SDS011;39536;52.198;9.920;2024-03-08T06:25:07;0.67;;;0.67;;
13967;SDS011;39536;52.198;9.920;2024-03-08T06:27:35;1.30;;;1.30;;
13967;SDS011;39536;52.198;9.920;2024-03-08T06:30:01;8.83;;;2.37;;
13967;SDS011;39536;52.198;9.920;2024-03-08T06:32:29;4.43;;;1.97;;
13967;SDS011;39536;52.198;9.920;2024-03-08T06:34:59;2.70;;;2.50;;
13967;SDS011;39536;52.198;9.920;2024-03-08T06:37:26;2.73;;;2.53;;
13967;SDS011;39536;52.198;9.920;2024-03-08T06:39:54;8.63;;;3.97;;
13967;SDS011;39536;52.198;9.920;2024-03-08T06:42:21;2.50;;;2.30;;
13967;SDS011;39536;52.198;9.920;2024-03-08T06:44:47;1.43;;;1.43;;
13967;SDS011;39536;52.198;9.920;2024-03-08T06:47:15;1.73;;;1.63;;
13967;SDS011;39536;52.198;9.920;2024-03-08T06:49:41;0.70;;;0.70;;
13967;SDS011;39536;52.198;9.920;2024-03-08T06:52:08;2.07;;;1.93;;
13967;SDS011;39536;52.198;9.920;2024-03-08T06:54:35;3.27;;;2.67;;
13967;SDS011;39536;52.198;9.920;2024-03-08T06:57:03;6.00;;;3.93;;
13967;SDS011;39536;52.198;9.920;2024-03-08T06:59:30;1.03;;;0.67;;
13967;SDS011;39536;52.198;9.920;2024-03-08T07:01:57;1.40;;;1.17;;
13967;SDS011;39536;52.198;9.920;2024-03-08T07:04:24;2.80;;;2.10;;
13967;SDS011;39536;52.198;9.920;2024-03-08T07:06:54;2.53;;;2.43;;
13967;SDS011;39536;52.198;9.920;2024-03-08T07:09:20;1.97;;;1.20;;
13967;SDS011;39536;52.198;9.920;2024-03-08T07:11:47;1.87;;;1.77;;
13967;SDS011;39536;52.198;9.920;2024-03-08T07:14:21;0.93;;;0.93;;
13967;SDS011;39536;52.198;9.920;2024-03-08T07:16:48;22.50;;;7.00;;
13967;SDS011;39536;52.198;9.920;2024-03-08T07:19:15;3.13;;;2.93;;
13967;SDS011;39536;52.198;9.920;2024-03-08T07:21:42;6.60;;;1.97;;
13967;SDS011;39536;52.198;9.920;2024-03-08T07:24:09;4.70;;;4.30;;
13967;SDS011;39536;52.198;9.920;2024-03-08T07:26:52;3.77;;;1.83;;
13967;SDS011;39536;52.198;9.920;2024-03-08T07:29:21;4.27;;;2.30;;
13967;SDS011;39536;52.198;9.920;2024-03-08T07:31:48;1.20;;;1.20;;
13967;SDS011;39536;52.198;9.920;2024-03-08T07:34:26;2.80;;;2.60;;
13967;SDS011;39536;52.198;9.920;2024-03-08T07:36:52;1.77;;;1.67;;
13967;SDS011;39536;52.198;9.920;2024-03-08T07:39:21;2.60;;;2.50;;
13967;SDS011;39536;52.198;9.920;2024-03-08T07:41:48;3.83;;;3.40;;
13967;SDS011;39536;52.198;9.920;2024-03-08T07:44:17;1.07;;;0.50;;
13967;SDS011;39536;52.198;9.920;2024-03-08T07:46:45;4.67;;;3.77;;
13967;SDS011;39536;52.198;9.920;2024-03-08T07:49:12;2.47;;;2.03;;
13967;SDS011;39536;52.198;9.920;2024-03-08T07:51:40;0.80;;;0.80;;
13967;SDS011;39536;52.198;9.920;2024-03-08T07:54:06;0.93;;;0.93;;
13967;SDS011;39536;52.198;9.920;2024-03-08T07:56:34;7.23;;;5.60;;
13967;SDS011;39536;52.198;9.920;2024-03-08T07:59:01;2.20;;;1.30;;
13967;SDS011;39536;52.198;9.920;2024-03-08T08:01:29;6.20;;;2.10;;
13967;SDS011;39536;52.198;9.920;2024-03-08T08:03:57;10.67;;;3.47;;
13967;SDS011;39536;52.198;9.920;2024-03-08T08:06:23;1.43;;;0.67;;
13967;SDS011;39536;52.198;9.920;2024-03-08T08:08:50;1.70;;;1.27;;
13967;SDS011;39536;52.198;9.920;2024-03-08T08:11:17;3.13;;;2.93;;
13967;SDS011;39536;52.198;9.920;2024-03-08T08:13:43;5.70;;;4.00;;
13967;SDS011;39536;52.198;9.920;2024-03-08T08:16:10;7.80;;;4.67;;
13967;SDS011;39536;52.198;9.920;2024-03-08T08:18:37;0.93;;;0.93;;
13967;SDS011;39536;52.198;9.920;2024-03-08T08:21:06;3.83;;;3.53;;
13967;SDS011;39536;52.198;9.920;2024-03-08T08:23:32;3.10;;;2.97;;
13967;SDS011;39536;52.198;9.920;2024-03-08T08:25:59;21.77;;;2.07;;
13967;SDS011;39536;52.198;9.920;2024-03-08T08:28:28;4.33;;;2.87;;
13967;SDS011;39536;52.198;9.920;2024-03-08T08:30:55;0.90;;;0.90;;
13967;SDS011;39536;52.198;9.920;2024-03-08T08:33:22;2.07;;;1.97;;
13967;SDS011;39536;52.198;9.920;2024-03-08T08:35:50;0.83;;;0.67;;
13967;SDS011;39536;52.198;9.920;2024-03-08T08:38:20;8.33;;;2.83;;
13967;SDS011;39536;52.198;9.920;2024-03-08T08:40:46;3.77;;;3.53;;
13967;SDS011;39536;52.198;9.920;2024-03-08T08:43:13;5.80;;;1.87;;
13967;SDS011;39536;52.198;9.920;2024-03-08T08:45:40;3.10;;;2.90;;
13967;SDS011;39536;52.198;9.920;2024-03-08T08:48:08;3.50;;;3.03;;
13967;SDS011;39536;52.198;9.920;2024-03-08T08:50:35;0.30;;;0.30;;
13967;SDS011;39536;52.198;9.920;2024-03-08T08:53:03;7.23;;;5.17;;
13967;SDS011;39536;52.198;9.920;2024-03-08T08:55:33;4.17;;;3.77;;
13967;SDS011;39536;52.198;9.920;2024-03-08T08:58:01;3.97;;;3.43;;
13967;SDS011;39536;52.198;9.920;2024-03-08T09:00:28;4.97;;;3.33;;
13967;SDS011;39536;52.198;9.920;2024-03-08T09:02:56;0.57;;;0.20;;
13967;SDS011;39536;52.198;9.920;2024-03-08T09:05:26;6.37;;;3.03;;
13967;SDS011;39536;52.198;9.920;2024-03-08T09:07:53;1.83;;;1.53;;
13967;SDS011;39536;52.198;9.920;2024-03-08T09:10:20;7.40;;;2.10;;
13967;SDS011;39536;52.198;9.920;2024-03-08T09:12:48;2.50;;;2.30;;
13967;SDS011;39536;52.198;9.920;2024-03-08T09:15:15;2.97;;;2.77;;
13967;SDS011;39536;52.198;9.920;2024-03-08T09:17:42;1.93;;;1.83;;
13967;SDS011;39536;52.198;9.920;2024-03-08T09:20:10;4.50;;;4.10;;
13967;SDS011;39536;52.198;9.920;2024-03-08T09:22:45;14.67;;;5.10;;
13967;SDS011;39536;52.198;9.920;2024-03-08T09:25:12;0.60;;;0.60;;
13967;SDS011;39536;52.198;9.920;2024-03-08T09:27:42;4.80;;;4.33;;
13967;SDS011;39536;52.198;9.920;2024-03-08T09:30:10;4.83;;;4.20;;
13967;SDS011;39536;52.198;9.920;2024-03-08T09:32:38;6.17;;;4.83;;
13967;SDS011;39536;52.198;9.920;2024-03-08T09:35:05;4.20;;;3.40;;
13967;SDS011;39536;52.198;9.920;2024-03-08T09:37:32;1.97;;;1.60;;
13967;SDS011;39536;52.198;9.920;2024-03-08T09:39:59;6.20;;;5.07;;
13967;SDS011;39536;52.198;9.920;2024-03-08T09:42:29;3.97;;;3.40;;
13967;SDS011;39536;52.198;9.920;2024-03-08T09:44:56;7.50;;;4.40;;
13967;SDS011;39536;52.198;9.920;2024-03-08T09:47:25;3.97;;;3.67;;
13967;SDS011;39536;52.198;9.920;2024-03-08T09:49:54;5.60;;;4.90;;
13967;SDS011;39536;52.198;9.920;2024-03-08T09:52:21;3.83;;;2.73;;
13967;SDS011;39536;52.198;9.920;2024-03-08T09:54:47;5.20;;;2.90;;
13967;SDS011;39536;52.198;9.920;2024-03-08T09:57:14;3.60;;;3.17;;
13967;SDS011;39536;52.198;9.920;2024-03-08T09:59:41;2.10;;;1.93;;
13967;SDS011;39536;52.198;9.920;2024-03-08T10:02:14;9.57;;;4.13;;
13967;SDS011;39536;52.198;9.920;2024-03-08T10:04:42;2.37;;;1.83;;
13967;SDS011;39536;52.198;9.920;2024-03-08T10:07:11;3.40;;;3.10;;
13967;SDS011;39536;52.198;9.920;2024-03-08T10:09:38;1.43;;;1.33;;
13967;SDS011;39536;52.198;9.920;2024-03-08T10:12:05;2.77;;;2.37;;
13967;SDS011;39536;52.198;9.920;2024-03-08T10:14:32;1.27;;;1.13;;
13967;SDS011;39536;52.198;9.920;2024-03-08T10:16:59;17.07;;;6.13;;
13967;SDS011;39536;52.198;9.920;2024-03-08T10:19:26;3.43;;;3.30;;
13967;SDS011;39536;52.198;9.920;2024-03-08T10:21:54;2.17;;;1.80;;
13967;SDS011;39536;52.198;9.920;2024-03-08T10:24:22;2.53;;;1.93;;
13967;SDS011;39536;52.198;9.920;2024-03-08T10:26:51;5.20;;;4.80;;
13967;SDS011;39536;52.198;9.920;2024-03-08T10:29:18;3.47;;;2.97;;
13967;SDS011;39536;52.198;9.920;2024-03-08T10:31:45;3.33;;;3.13;;
13967;SDS011;39536;52.198;9.920;2024-03-08T10:34:12;7.27;;;5.43;;
13967;SDS011;39536;52.198;9.920;2024-03-08T10:36:38;5.70;;;5.17;;
13967;SDS011;39536;52.198;9.920;2024-03-08T10:39:10;7.07;;;5.03;;
13967;SDS011;39536;52.198;9.920;2024-03-08T10:41:47;0.67;;;0.67;;
13967;SDS011;39536;52.198;9.920;2024-03-08T10:44:21;3.03;;;2.77;;
13967;SDS011;39536;52.198;9.920;2024-03-08T10:47:09;6.77;;;6.10;;
13967;SDS011;39536;52.198;9.920;2024-03-08T10:49:45;6.23;;;5.73;;
13967;SDS011;39536;52.198;9.920;2024-03-08T10:52:18;1.23;;;1.20;;
13967;SDS011;39536;52.198;9.920;2024-03-08T10:54:47;5.67;;;5.23;;
13967;SDS011;39536;52.198;9.920;2024-03-08T10:57:14;5.77;;;4.20;;
13967;SDS011;39536;52.198;9.920;2024-03-08T10:59:44;4.60;;;4.30;;
13967;SDS011;39536;52.198;9.920;2024-03-08T11:02:14;6.53;;;4.33;;
13967;SDS011;39536;52.198;9.920;2024-03-08T11:04:45;3.67;;;2.83;;
13967;SDS011;39536;52.198;9.920;2024-03-08T11:07:12;3.53;;;3.23;;
13967;SDS011;39536;52.198;9.920;2024-03-08T11:09:42;4.53;;;3.47;;
13967;SDS011;39536;52.198;9.920;2024-03-08T11:12:22;7.63;;;5.70;;
13967;SDS011;39536;52.198;9.920;2024-03-08T11:14:54;7.07;;;5.13;;
13967;SDS011;39536;52.198;9.920;2024-03-08T11:17:22;7.07;;;5.80;;
13967;SDS011;39536;52.198;9.920;2024-03-08T11:19:52;5.27;;;4.27;;
13967;SDS011;39536;52.198;9.920;2024-03-08T11:22:22;4.70;;;4.27;;
13967;SDS011;39536;52.198;9.920;2024-03-08T11:24:52;5.57;;;5.00;;
13967;SDS011;39536;52.198;9.920;2024-03-08T11:27:18;7.10;;;5.87;;
13967;SDS011;39536;52.198;9.920;2024-03-08T11:30:00;8.20;;;5.07;;
13967;SDS011;39536;52.198;9.920;2024-03-08T11:32:36;5.60;;;4.90;;
13967;SDS011;39536;52.198;9.920;2024-03-08T11:35:06;6.67;;;4.77;;
13967;SDS011;39536;52.198;9.920;2024-03-08T11:37:48;7.83;;;5.17;;
13967;SDS011;39536;52.198;9.920;2024-03-08T11:40:15;10.20;;;8.43;;
13967;SDS011;39536;52.198;9.920;2024-03-08T11:42:44;5.87;;;4.87;;
13967;SDS011;39536;52.198;9.920;2024-03-08T11:45:14;7.43;;;5.73;;
13967;SDS011;39536;52.198;9.920;2024-03-08T11:47:45;6.67;;;6.13;;
13967;SDS011;39536;52.198;9.920;2024-03-08T11:50:11;10.37;;;8.20;;
13967;SDS011;39536;52.198;9.920;2024-03-08T11:52:38;5.63;;;5.17;;
13967;SDS011;39536;52.198;9.920;2024-03-08T11:55:05;7.20;;;4.57;;
13967;SDS011;39536;52.198;9.920;2024-03-08T11:57:33;7.17;;;5.33;;
13967;SDS011;39536;52.198;9.920;2024-03-08T12:00:00;7.43;;;6.07;;
13967;SDS011;39536;52.198;9.920;2024-03-08T12:02:33;4.07;;;3.67;;
13967;SDS011;39536;52.198;9.920;2024-03-08T12:05:01;11.27;;;8.43;;
13967;SDS011;39536;52.198;9.920;2024-03-08T12:07:29;6.50;;;5.83;;
13967;SDS011;39536;52.198;9.920;2024-03-08T12:10:16;5.83;;;5.30;;
13967;SDS011;39536;52.198;9.920;2024-03-08T12:12:45;8.10;;;7.27;;
13967;SDS011;39536;52.198;9.920;2024-03-08T12:15:13;7.77;;;7.00;;
13967;SDS011;39536;52.198;9.920;2024-03-08T12:17:42;6.70;;;5.63;;
13967;SDS011;39536;52.198;9.920;2024-03-08T12:20:12;7.03;;;6.30;;
13967;SDS011;39536;52.198;9.920;2024-03-08T12:22:41;8.87;;;5.90;;
13967;SDS011;39536;52.198;9.920;2024-03-08T12:25:08;4.87;;;3.60;;
13967;SDS011;39536;52.198;9.920;2024-03-08T12:27:37;2.93;;;2.73;;
13967;SDS011;39536;52.198;9.920;2024-03-08T12:32:54;10.97;;;5.60;;
13967;SDS011;39536;52.198;9.920;2024-03-08T12:35:23;8.33;;;7.37;;
13967;SDS011;39536;52.198;9.920;2024-03-08T12:37:52;4.97;;;3.67;;
13967;SDS011;39536;52.198;9.920;2024-03-08T12:40:25;5.90;;;5.40;;
13967;SDS011;39536;52.198;9.920;2024-03-08T12:42:53;3.97;;;3.63;;
13967;SDS011;39536;52.198;9.920;2024-03-08T12:45:20;4.23;;;3.93;;
13967;SDS011;39536;52.198;9.920;2024-03-08T12:47:49;6.73;;;6.03;;
13967;SDS011;39536;52.198;9.920;2024-03-08T12:50:17;9.40;;;5.83;;
13967;SDS011;39536;52.198;9.920;2024-03-08T12:52:44;6.07;;;5.17;;
13967;SDS011;39536;52.198;9.920;2024-03-08T12:55:10;4.57;;;3.73;;
13967;SDS011;39536;52.198;9.920;2024-03-08T12:57:37;10.57;;;4.60;;
13967;SDS011;39536;52.198;9.920;2024-03-08T13:00:05;3.23;;;3.03;;
13967;SDS011;39536;52.198;9.920;2024-03-08T13:02:38;8.23;;;4.83;;
13967;SDS011;39536;52.198;9.920;2024-03-08T13:05:05;9.00;;;6.83;;
13967;SDS011;39536;52.198;9.920;2024-03-08T13:07:36;6.87;;;6.17;;
13967;SDS011;39536;52.198;9.920;2024-03-08T13:10:03;11.73;;;6.07;;
13967;SDS011;39536;52.198;9.920;2024-03-08T13:12:32;7.03;;;6.37;;
13967;SDS011;39536;52.198;9.920;2024-03-08T13:15:00;6.57;;;5.87;;
13967;SDS011;39536;52.198;9.920;2024-03-08T13:17:26;8.77;;;7.87;;
13967;SDS011;39536;52.198;9.920;2024-03-08T13:19:54;5.33;;;4.87;;
13967;SDS011;39536;52.198;9.920;2024-03-08T13:22:22;6.07;;;5.47;;
13967;SDS011;39536;52.198;9.920;2024-03-08T13:24:51;3.63;;;3.33;;
13967;SDS011;39536;52.198;9.920;2024-03-08T13:27:18;1.77;;;1.57;;
13967;SDS011;39536;52.198;9.920;2024-03-08T13:29:46;5.17;;;4.67;;
13967;SDS011;39536;52.198;9.920;2024-03-08T13:32:14;2.40;;;0.53;;
13967;SDS011;39536;52.198;9.920;2024-03-08T13:34:41;4.03;;;3.63;;
13967;SDS011;39536;52.198;9.920;2024-03-08T13:37:08;4.63;;;4.23;;
13967;SDS011;39536;52.198;9.920;2024-03-08T13:39:35;4.83;;;4.53;;
13967;SDS011;39536;52.198;9.920;2024-03-08T13:42:07;3.87;;;3.53;;
13967;SDS011;39536;52.198;9.920;2024-03-08T13:44:34;3.73;;;3.43;;
13967;SDS011;39536;52.198;9.920;2024-03-08T13:47:02;3.33;;;2.97;;
13967;SDS011;39536;52.198;9.920;2024-03-08T13:49:30;7.27;;;5.13;;
13967;SDS011;39536;52.198;9.920;2024-03-08T13:51:58;9.67;;;5.20;;
13967;SDS011;39536;52.198;9.920;2024-03-08T13:54:25;8.63;;;7.73;;
13967;SDS011;39536;52.198;9.920;2024-03-08T13:56:52;5.43;;;4.00;;
13967;SDS011;39536;52.198;9.920;2024-03-08T13:59:20;4.93;;;4.07;;
13967;SDS011;39536;52.198;9.920;2024-03-08T14:01:48;6.80;;;6.00;;
13967;SDS011;39536;52.198;9.920;2024-03-08T14:04:15;6.63;;;5.37;;
13967;SDS011;39536;52.198;9.920;2024-03-08T14:06:42;8.53;;;7.67;;
13967;SDS011;39536;52.198;9.920;2024-03-08T14:09:10;6.53;;;5.90;;
13967;SDS011;39536;52.198;9.920;2024-03-08T14:11:41;6.57;;;6.07;;
13967;SDS011;39536;52.198;9.920;2024-03-08T14:14:11;4.43;;;4.03;;
13967;SDS011;39536;52.198;9.920;2024-03-08T14:16:39;7.57;;;6.87;;
13967;SDS011;39536;52.198;9.920;2024-03-08T14:19:07;4.23;;;3.10;;
13967;SDS011;39536;52.198;9.920;2024-03-08T14:21:35;4.73;;;2.20;;
13967;SDS011;39536;52.198;9.920;2024-03-08T14:24:04;4.87;;;4.53;;
13967;SDS011;39536;52.198;9.920;2024-03-08T14:26:31;8.80;;;7.67;;
13967;SDS011;39536;52.198;9.920;2024-03-08T14:28:59;11.70;;;7.23;;
13967;SDS011;39536;52.198;9.920;2024-03-08T14:31:25;4.90;;;4.40;;
13967;SDS011;39536;52.198;9.920;2024-03-08T14:33:54;6.00;;;5.17;;
13967;SDS011;39536;52.198;9.920;2024-03-08T14:36:22;5.00;;;3.47;;
13967;SDS011;39536;52.198;9.920;2024-03-08T14:38:50;5.83;;;5.33;;
13967;SDS011;39536;52.198;9.920;2024-03-08T14:41:17;7.07;;;6.27;;
13967;SDS011;39536;52.198;9.920;2024-03-08T14:43:44;7.57;;;4.53;;
13967;SDS011;39536;52.198;9.920;2024-03-08T14:46:12;4.37;;;3.97;;
13967;SDS011;39536;52.198;9.920;2024-03-08T14:48:42;4.67;;;4.30;;
13967;SDS011;39536;52.198;9.920;2024-03-08T14:51:10;4.27;;;3.97;;
13967;SDS011;39536;52.198;9.920;2024-03-08T14:53:39;5.13;;;4.03;;
13967;SDS011;39536;52.198;9.920;2024-03-08T14:56:06;3.63;;;3.33;;
13967;SDS011;39536;52.198;9.920;2024-03-08T14:58:34;6.53;;;4.53;;